createdAt,value
2018-09-16T00:03:22.481Z,95.8
2018-09-16T00:08:22.468Z,96.6
2018-09-16T00:13:22.478Z,96.1
2018-09-16T00:18:22.466Z,96
2018-09-16T00:23:22.459Z,96.4
2018-09-16T00:28:22.479Z,96.8
2018-09-16T00:33:34.485Z,97.5
2018-09-16T00:38:34.233Z,97
2018-09-16T00:43:34.237Z,97.1
2018-09-16T00:48:34.412Z,97.8
2018-09-16T00:53:34.358Z,97.6
2018-09-16T00:58:34.252Z,97.7
2018-09-16T01:03:34.394Z,97.9
2018-09-16T01:08:34.449Z,97.8
2018-09-16T01:13:34.478Z,99.5
2018-09-16T01:18:34.375Z,98.8
2018-09-16T01:23:34.244Z,97.9
2018-09-16T01:28:34.284Z,98.1
2018-09-16T01:33:34.421Z,98.2
2018-09-16T01:38:34.557Z,99.1
2018-09-16T01:43:34.706Z,99
2018-09-16T01:48:34.692Z,99.2
2018-09-16T01:53:34.741Z,99.4
2018-09-16T01:58:34.787Z,98.6
2018-09-16T02:03:34.915Z,99.6
2018-09-16T02:08:47.250Z,100
2018-09-16T02:13:46.961Z,99.6
2018-09-16T02:18:47.109Z,99.4
2018-09-16T02:23:47.069Z,99.3
2018-09-16T02:28:46.987Z,98.7
2018-09-16T02:33:46.973Z,98.8
2018-09-16T02:38:47.759Z,100
2018-09-16T02:43:47.253Z,100
2018-09-16T02:48:47.256Z,100
2018-09-16T02:54:00.287Z,100
2018-09-16T02:59:00.022Z,99.6
2018-09-16T03:03:59.954Z,100
2018-09-16T03:09:00.488Z,100
2018-09-16T03:14:00.356Z,99.9
2018-09-16T03:19:00.222Z,100
2018-09-16T03:24:00.482Z,98.1
2018-09-16T03:29:00.224Z,100
2018-09-16T03:34:00.455Z,100
2018-09-16T03:39:00.238Z,100
2018-09-16T03:44:00.413Z,100
2018-09-16T03:49:00.409Z,99.7
2018-09-16T03:54:02.256Z,99.5
2018-09-16T03:59:02.190Z,99.3
2018-09-16T04:04:12.818Z,99.3
2018-09-16T04:09:12.725Z,98.9
2018-09-16T04:14:12.529Z,97.2
2018-09-16T04:19:12.699Z,98.1
2018-09-16T04:24:12.728Z,97.6
2018-09-16T04:29:12.544Z,97.5
2018-09-16T04:34:12.711Z,97.4
2018-09-16T04:39:12.889Z,97.7
2018-09-16T04:44:12.655Z,97.4
2018-09-16T04:49:12.679Z,99.4
2018-09-16T04:54:12.743Z,100
2018-09-16T04:59:12.556Z,100
2018-09-16T05:04:14.136Z,100
2018-09-16T05:09:13.863Z,100
2018-09-16T05:14:13.989Z,100
2018-09-16T05:19:14.052Z,100
2018-09-16T05:24:14.109Z,99.9
2018-09-16T05:29:14.738Z,100
2018-09-16T05:34:14.460Z,99.9
2018-09-16T05:39:28.625Z,99.6
2018-09-16T05:44:28.303Z,99.2
2018-09-16T05:49:28.567Z,98.4
2018-09-16T05:54:28.486Z,98.3
2018-09-16T05:59:28.519Z,99.1
2018-09-16T06:04:28.362Z,98.3
2018-09-16T06:09:28.406Z,94.8
2018-09-16T06:14:28.537Z,93.1
2018-09-16T06:19:28.570Z,93.2
2018-09-16T06:24:28.851Z,92.4
2018-09-16T06:29:28.749Z,88.6
2018-09-16T06:34:28.543Z,87
2018-09-16T06:39:29.864Z,84.9
2018-09-16T06:44:30.356Z,81.7
2018-09-16T06:49:42.295Z,82
2018-09-16T06:54:42.244Z,80.6
2018-09-16T06:59:42.045Z,80.6
2018-09-16T07:04:42.267Z,78.6
2018-09-16T07:09:42.059Z,77
2018-09-16T07:14:42.251Z,76.3
2018-09-16T07:19:42.027Z,76.8
2018-09-16T07:24:45.617Z,75.6
2018-09-16T07:29:45.168Z,73.7
2018-09-16T07:34:58.181Z,74.5
2018-09-16T07:39:57.912Z,72.8
2018-09-16T07:44:58.377Z,73.1
2018-09-16T07:49:57.905Z,71.9
2018-09-16T07:54:58.128Z,72.6
2018-09-16T07:59:58.113Z,71.6
2018-09-16T08:04:58.157Z,72.7
2018-09-16T08:10:03.356Z,73.8
2018-09-16T08:15:03.151Z,71.7
2018-09-16T08:20:16.901Z,70.9
2018-09-16T08:25:16.693Z,70.3
2018-09-16T08:30:16.646Z,70.2
2018-09-16T08:35:16.665Z,69.2
2018-09-16T08:40:16.634Z,71
2018-09-16T08:45:16.876Z,70.7
2018-09-16T08:50:16.808Z,70
2018-09-16T08:55:16.673Z,69.7
2018-09-16T09:00:16.669Z,70.3
2018-09-16T09:05:28.709Z,70
2018-09-16T09:10:28.625Z,69.4
2018-09-16T09:15:28.406Z,69.6
2018-09-16T09:20:28.444Z,68.8
2018-09-16T09:25:28.358Z,68.1
2018-09-16T09:30:28.436Z,67.7
2018-09-16T09:35:28.376Z,68.1
2018-09-16T09:40:29.359Z,67.1
2018-09-16T09:45:29.925Z,65.7
2018-09-16T09:50:40.838Z,66.8
2018-09-16T09:55:40.570Z,65.6
2018-09-16T10:00:40.600Z,64.7
2018-09-16T10:05:40.542Z,66.3
2018-09-16T10:10:40.586Z,65.2
2018-09-16T10:15:40.588Z,64.3
2018-09-16T10:20:40.575Z,65.2
2018-09-16T10:25:40.571Z,65
2018-09-16T10:30:41.651Z,65.5
2018-09-16T10:35:52.001Z,64.4
2018-09-16T10:40:51.764Z,65.5
2018-09-16T10:45:51.743Z,63.3
2018-09-16T10:50:51.717Z,63.6
2018-09-16T10:55:51.730Z,63.6
2018-09-16T11:00:51.824Z,62.9
2018-09-16T11:05:51.708Z,63.4
2018-09-16T11:10:51.913Z,62.6
2018-09-16T11:15:52.118Z,62.7
2018-09-16T11:21:04.753Z,63.6
2018-09-16T11:26:04.476Z,61.4
2018-09-16T11:31:04.734Z,62.7
2018-09-16T11:36:04.732Z,60.7
2018-09-16T11:41:04.780Z,62.3
2018-09-16T11:46:04.817Z,62.4
2018-09-16T11:51:04.711Z,61.2
2018-09-16T11:56:05.488Z,60.4
2018-09-16T12:01:05.279Z,60.8
2018-09-16T12:06:17.441Z,59.8
2018-09-16T12:11:17.314Z,61.8
2018-09-16T12:16:17.402Z,61.3
2018-09-16T12:21:17.172Z,60.1
2018-09-16T12:26:17.303Z,59.8
2018-09-16T12:31:17.148Z,60
2018-09-16T12:36:17.166Z,60.5
2018-09-16T12:41:17.180Z,58.9
2018-09-16T12:46:17.194Z,59.7
2018-09-16T12:51:30.506Z,60.7
2018-09-16T12:56:30.053Z,60.1
2018-09-16T13:01:30.069Z,60.2
2018-09-16T13:06:30.215Z,59.1
2018-09-16T13:11:30.077Z,59.3
2018-09-16T13:16:30.098Z,59.6
2018-09-16T13:21:30.193Z,60.1
2018-09-16T13:26:30.234Z,60.6
2018-09-16T13:31:30.336Z,59.1
2018-09-16T13:36:30.346Z,59.5
2018-09-16T13:41:30.114Z,58
2018-09-16T13:46:30.103Z,59.8
2018-09-16T13:51:30.980Z,60.1
2018-09-16T13:56:30.667Z,59.9
2018-09-16T14:01:43.692Z,59.2
2018-09-16T14:06:43.256Z,61.3
2018-09-16T14:11:43.289Z,60.2
2018-09-16T14:16:43.307Z,60.6
2018-09-16T14:21:43.300Z,62.4
2018-09-16T14:26:43.286Z,62.5
2018-09-16T14:31:43.309Z,61
2018-09-16T14:36:43.310Z,61.3
2018-09-16T14:41:43.256Z,61.7
2018-09-16T14:46:54.484Z,61.1
2018-09-16T14:51:54.191Z,61.1
2018-09-16T14:56:54.297Z,61.7
2018-09-16T15:01:54.206Z,61.6
2018-09-16T15:06:54.237Z,61.6
2018-09-16T15:11:54.235Z,61.5
2018-09-16T15:16:54.219Z,62.8
2018-09-16T15:21:54.227Z,63
2018-09-16T15:26:54.473Z,63.8
2018-09-16T15:32:05.532Z,63.8
2018-09-16T15:37:05.177Z,63.9
2018-09-16T15:42:06.208Z,64.6
2018-09-16T15:47:05.170Z,64.5
2018-09-16T15:52:05.179Z,65.3
2018-09-16T15:57:05.182Z,64.7
2018-09-16T16:02:05.199Z,66.3
2018-09-16T16:07:05.589Z,65.6
2018-09-16T16:12:05.194Z,66
2018-09-16T16:17:16.824Z,66.3
2018-09-16T16:22:16.553Z,66.6
2018-09-16T16:27:16.564Z,67.9
2018-09-16T16:32:16.579Z,68.3
2018-09-16T16:37:16.604Z,67.8
2018-09-16T16:42:16.587Z,69
2018-09-16T16:47:16.601Z,69.2
2018-09-16T16:52:20.095Z,70.4
2018-09-16T16:57:19.726Z,70.7
2018-09-16T17:02:32.608Z,71.4
2018-09-16T17:07:32.360Z,71.9
2018-09-16T17:12:32.550Z,72.1
2018-09-16T17:17:32.606Z,72
2018-09-16T17:22:32.381Z,72.5
2018-09-16T17:27:32.367Z,74
2018-09-16T17:32:32.380Z,73.9
2018-09-16T17:37:34.306Z,75.1
2018-09-16T17:42:33.955Z,75.3
2018-09-16T17:47:44.594Z,75.4
2018-09-16T17:52:44.294Z,76.2
2018-09-16T17:57:44.315Z,75.8
2018-09-16T18:02:44.314Z,76
2018-09-16T18:07:44.308Z,76.6
2018-09-16T18:12:45.649Z,77.4
2018-09-16T18:17:44.551Z,77.2
2018-09-16T18:22:44.305Z,78
2018-09-16T18:27:44.368Z,78.2
2018-09-16T18:32:44.325Z,78.3
2018-09-16T18:37:44.360Z,78.2
2018-09-16T18:42:44.492Z,78.5
2018-09-16T18:47:46.091Z,78.5
2018-09-16T18:52:45.829Z,79.6
2018-09-16T18:57:45.852Z,79.3
2018-09-16T19:02:47.539Z,79.6
2018-09-16T19:07:47.218Z,79.5
2018-09-16T19:12:47.384Z,79.5
2018-09-16T19:17:47.426Z,79.3
2018-09-16T19:22:47.414Z,80.1
2018-09-16T19:27:47.453Z,80.8
2018-09-16T19:32:47.499Z,80
2018-09-16T19:37:47.475Z,80.5
2018-09-16T19:42:48.507Z,81.3
2018-09-16T19:47:59.254Z,80.3
2018-09-16T19:52:58.846Z,80.6
2018-09-16T19:57:58.855Z,80.9
2018-09-16T20:02:58.877Z,81
2018-09-16T20:07:58.858Z,81.7
2018-09-16T20:12:58.962Z,82.4
2018-09-16T20:17:59.179Z,82.2
2018-09-16T20:22:58.925Z,82.7
2018-09-16T20:27:59.006Z,83
2018-09-16T20:33:11.733Z,82.6
2018-09-16T20:38:12.185Z,83.5
2018-09-16T20:43:12.135Z,84.1
2018-09-16T20:48:12.165Z,83.3
2018-09-16T20:53:12.209Z,84.4
2018-09-16T20:58:12.154Z,84.4
2018-09-16T21:03:12.138Z,85.3
2018-09-16T21:08:12.167Z,85.2
2018-09-16T21:13:12.273Z,87.4
2018-09-16T21:18:12.432Z,88.7
2018-09-16T21:23:12.212Z,87.9
2018-09-16T21:28:12.206Z,88.3
2018-09-16T21:33:12.235Z,88.8
2018-09-16T21:38:12.211Z,88.9
2018-09-16T21:43:24.455Z,88.8
2018-09-16T21:48:24.183Z,89.7
2018-09-16T21:53:24.199Z,91
2018-09-16T21:58:24.212Z,90.8
2018-09-16T22:03:24.248Z,90.6
2018-09-16T22:08:24.260Z,90
2018-09-16T22:13:24.615Z,90.2
2018-09-16T22:18:27.255Z,90.8
2018-09-16T22:23:27.000Z,91.4
2018-09-16T22:28:39.452Z,92.8
2018-09-16T22:33:39.355Z,93.2
2018-09-16T22:38:39.288Z,93.5
2018-09-16T22:43:39.362Z,92.8
2018-09-16T22:48:39.169Z,93
2018-09-16T22:53:39.163Z,93.3
2018-09-16T22:58:39.298Z,93
2018-09-16T23:03:39.362Z,94.4
2018-09-16T23:08:39.362Z,94
2018-09-16T23:13:39.431Z,94.5
2018-09-16T23:18:39.368Z,94.4
2018-09-16T23:23:39.200Z,93.2
2018-09-16T23:28:39.678Z,93.1
2018-09-16T23:33:39.410Z,92.9
2018-09-16T23:38:52.238Z,93.3
2018-09-16T23:43:52.115Z,94.5
2018-09-16T23:48:52.103Z,94.3
2018-09-16T23:53:52.059Z,93.3
2018-09-16T23:58:51.896Z,93.8
